sensor_id;sensor_type;location;lat;lon;timestamp;P1;durP1;ratioP1;P2;durP2;ratioP2
48040;SDS011;33815;48.386;11.738;2022-11-21T00:00:10;1.13;;;1.10;;
48040;SDS011;33815;48.386;11.738;2022-11-21T00:02:36;1.42;;;1.30;;
48040;SDS011;33815;48.386;11.738;2022-11-21T00:05:01;1.20;;;1.20;;
48040;SDS011;33815;48.386;11.738;2022-11-21T00:07:26;1.10;;;1.10;;
48040;SDS011;33815;48.386;11.738;2022-11-21T00:09:51;1.20;;;1.20;;
48040;SDS011;33815;48.386;11.738;2022-11-21T00:12:17;1.17;;;1.17;;
48040;SDS011;33815;48.386;11.738;2022-11-21T00:14:42;1.10;;;1.10;;
48040;SDS011;33815;48.386;11.738;2022-11-21T00:17:07;1.08;;;1.08;;
48040;SDS011;33815;48.386;11.738;2022-11-21T00:19:33;1.20;;;1.20;;
48040;SDS011;33815;48.386;11.738;2022-11-21T00:21:59;1.10;;;1.10;;
48040;SDS011;33815;48.386;11.738;2022-11-21T00:24:24;2.50;;;1.23;;
48040;SDS011;33815;48.386;11.738;2022-11-21T00:26:49;1.15;;;1.15;;
48040;SDS011;33815;48.386;11.738;2022-11-21T00:29:14;1.30;;;1.20;;
48040;SDS011;33815;48.386;11.738;2022-11-21T00:31:40;1.13;;;1.10;;
48040;SDS011;33815;48.386;11.738;2022-11-21T00:34:05;1.15;;;1.15;;
48040;SDS011;33815;48.386;11.738;2022-11-21T00:36:30;1.20;;;1.20;;
48040;SDS011;33815;48.386;11.738;2022-11-21T00:38:55;2.15;;;1.23;;
48040;SDS011;33815;48.386;11.738;2022-11-21T00:41:21;1.17;;;1.17;;
48040;SDS011;33815;48.386;11.738;2022-11-21T00:43:46;0.90;;;0.90;;
48040;SDS011;33815;48.386;11.738;2022-11-21T00:46:11;1.17;;;1.17;;
48040;SDS011;33815;48.386;11.738;2022-11-21T00:48:36;1.20;;;1.20;;
48040;SDS011;33815;48.386;11.738;2022-11-21T00:51:02;1.13;;;1.13;;
48040;SDS011;33815;48.386;11.738;2022-11-21T00:53:27;1.23;;;1.23;;
48040;SDS011;33815;48.386;11.738;2022-11-21T00:55:53;1.30;;;1.30;;
48040;SDS011;33815;48.386;11.738;2022-11-21T00:58:19;1.30;;;1.30;;
48040;SDS011;33815;48.386;11.738;2022-11-21T01:00:44;1.42;;;1.30;;
48040;SDS011;33815;48.386;11.738;2022-11-21T01:03:10;1.23;;;1.13;;
48040;SDS011;33815;48.386;11.738;2022-11-21T01:05:35;1.23;;;1.23;;
48040;SDS011;33815;48.386;11.738;2022-11-21T01:08:00;3.22;;;1.27;;
48040;SDS011;33815;48.386;11.738;2022-11-21T01:10:25;1.33;;;1.27;;
48040;SDS011;33815;48.386;11.738;2022-11-21T01:12:51;1.50;;;1.40;;
48040;SDS011;33815;48.386;11.738;2022-11-21T01:15:16;2.38;;;1.20;;
48040;SDS011;33815;48.386;11.738;2022-11-21T01:17:41;1.33;;;1.23;;
48040;SDS011;33815;48.386;11.738;2022-11-21T01:20:07;1.13;;;1.13;;
48040;SDS011;33815;48.386;11.738;2022-11-21T01:22:32;1.17;;;1.17;;
48040;SDS011;33815;48.386;11.738;2022-11-21T01:24:58;1.80;;;1.15;;
48040;SDS011;33815;48.386;11.738;2022-11-21T01:27:23;4.10;;;1.30;;
48040;SDS011;33815;48.386;11.738;2022-11-21T01:29:48;1.27;;;1.20;;
48040;SDS011;33815;48.386;11.738;2022-11-21T01:32:14;3.78;;;1.25;;
48040;SDS011;33815;48.386;11.738;2022-11-21T01:34:39;1.20;;;1.20;;
48040;SDS011;33815;48.386;11.738;2022-11-21T01:37:04;3.55;;;1.20;;
48040;SDS011;33815;48.386;11.738;2022-11-21T01:39:29;2.47;;;2.38;;
48040;SDS011;33815;48.386;11.738;2022-11-21T01:41:55;1.20;;;1.10;;
48040;SDS011;33815;48.386;11.738;2022-11-21T01:44:21;1.40;;;1.30;;
48040;SDS011;33815;48.386;11.738;2022-11-21T01:46:48;1.70;;;1.27;;
48040;SDS011;33815;48.386;11.738;2022-11-21T01:49:19;1.20;;;1.20;;
48040;SDS011;33815;48.386;11.738;2022-11-21T01:51:58;1.10;;;1.10;;
48040;SDS011;33815;48.386;11.738;2022-11-21T01:57:39;1.50;;;1.40;;
48040;SDS011;33815;48.386;11.738;2022-11-21T02:00:05;1.13;;;1.13;;
48040;SDS011;33815;48.386;11.738;2022-11-21T02:02:38;1.20;;;1.20;;
48040;SDS011;33815;48.386;11.738;2022-11-21T02:05:07;1.45;;;1.23;;
48040;SDS011;33815;48.386;11.738;2022-11-21T02:07:37;1.40;;;1.30;;
48040;SDS011;33815;48.386;11.738;2022-11-21T02:10:06;1.05;;;1.05;;
48040;SDS011;33815;48.386;11.738;2022-11-21T02:15:04;1.48;;;1.17;;
48040;SDS011;33815;48.386;11.738;2022-11-21T02:17:31;1.10;;;1.10;;
48040;SDS011;33815;48.386;11.738;2022-11-21T02:20:04;1.67;;;1.10;;
48040;SDS011;33815;48.386;11.738;2022-11-21T02:25:34;1.20;;;1.20;;
48040;SDS011;33815;48.386;11.738;2022-11-21T02:28:02;1.70;;;1.60;;
48040;SDS011;33815;48.386;11.738;2022-11-21T02:30:29;2.67;;;1.40;;
48040;SDS011;33815;48.386;11.738;2022-11-21T02:32:57;1.95;;;1.38;;
48040;SDS011;33815;48.386;11.738;2022-11-21T02:35:23;2.65;;;1.40;;
48040;SDS011;33815;48.386;11.738;2022-11-21T02:38:02;2.38;;;1.42;;
48040;SDS011;33815;48.386;11.738;2022-11-21T02:40:33;1.38;;;1.38;;
48040;SDS011;33815;48.386;11.738;2022-11-21T02:43:05;1.85;;;1.55;;
48040;SDS011;33815;48.386;11.738;2022-11-21T02:45:38;1.17;;;1.17;;
48040;SDS011;33815;48.386;11.738;2022-11-21T02:48:06;1.10;;;1.10;;
48040;SDS011;33815;48.386;11.738;2022-11-21T02:50:32;2.13;;;1.30;;
48040;SDS011;33815;48.386;11.738;2022-11-21T02:52:59;1.80;;;1.20;;
48040;SDS011;33815;48.386;11.738;2022-11-21T02:55:26;1.17;;;1.17;;
48040;SDS011;33815;48.386;11.738;2022-11-21T02:57:52;1.50;;;1.40;;
48040;SDS011;33815;48.386;11.738;2022-11-21T03:00:17;1.40;;;1.30;;
48040;SDS011;33815;48.386;11.738;2022-11-21T03:02:43;1.35;;;1.25;;
48040;SDS011;33815;48.386;11.738;2022-11-21T03:05:09;1.70;;;1.40;;
48040;SDS011;33815;48.386;11.738;2022-11-21T03:07:36;1.95;;;1.13;;
48040;SDS011;33815;48.386;11.738;2022-11-21T03:10:02;1.90;;;1.20;;
48040;SDS011;33815;48.386;11.738;2022-11-21T03:12:28;1.10;;;1.10;;
48040;SDS011;33815;48.386;11.738;2022-11-21T03:14:53;1.48;;;1.20;;
48040;SDS011;33815;48.386;11.738;2022-11-21T03:17:18;1.10;;;1.10;;
48040;SDS011;33815;48.386;11.738;2022-11-21T03:19:44;1.50;;;1.40;;
48040;SDS011;33815;48.386;11.738;2022-11-21T03:22:10;2.58;;;1.38;;
48040;SDS011;33815;48.386;11.738;2022-11-21T03:24:36;2.90;;;1.23;;
48040;SDS011;33815;48.386;11.738;2022-11-21T03:27:01;1.60;;;1.50;;
48040;SDS011;33815;48.386;11.738;2022-11-21T03:29:26;1.38;;;1.27;;
48040;SDS011;33815;48.386;11.738;2022-11-21T03:31:52;1.45;;;1.30;;
48040;SDS011;33815;48.386;11.738;2022-11-21T03:34:17;1.55;;;1.45;;
48040;SDS011;33815;48.386;11.738;2022-11-21T03:36:42;2.47;;;1.10;;
48040;SDS011;33815;48.386;11.738;2022-11-21T03:39:07;1.20;;;1.20;;
48040;SDS011;33815;48.386;11.738;2022-11-21T03:41:33;3.55;;;1.48;;
48040;SDS011;33815;48.386;11.738;2022-11-21T03:44:06;1.55;;;1.45;;
48040;SDS011;33815;48.386;11.738;2022-11-21T03:46:34;6.13;;;1.40;;
48040;SDS011;33815;48.386;11.738;2022-11-21T03:49:01;1.63;;;1.52;;
48040;SDS011;33815;48.386;11.738;2022-11-21T03:51:26;1.33;;;1.33;;
48040;SDS011;33815;48.386;11.738;2022-11-21T03:53:52;1.25;;;1.17;;
48040;SDS011;33815;48.386;11.738;2022-11-21T03:56:18;1.33;;;1.15;;
48040;SDS011;33815;48.386;11.738;2022-11-21T03:58:43;1.40;;;1.30;;
48040;SDS011;33815;48.386;11.738;2022-11-21T04:01:09;2.20;;;1.45;;
48040;SDS011;33815;48.386;11.738;2022-11-21T04:03:37;2.28;;;1.33;;
48040;SDS011;33815;48.386;11.738;2022-11-21T04:06:03;1.38;;;1.20;;
48040;SDS011;33815;48.386;11.738;2022-11-21T04:08:28;2.05;;;1.38;;
48040;SDS011;33815;48.386;11.738;2022-11-21T04:10:53;1.27;;;1.23;;
48040;SDS011;33815;48.386;11.738;2022-11-21T04:13:19;1.05;;;1.02;;
48040;SDS011;33815;48.386;11.738;2022-11-21T04:15:45;3.13;;;1.40;;
48040;SDS011;33815;48.386;11.738;2022-11-21T04:18:10;2.58;;;1.15;;
48040;SDS011;33815;48.386;11.738;2022-11-21T04:20:36;1.77;;;1.05;;
48040;SDS011;33815;48.386;11.738;2022-11-21T04:23:02;1.63;;;1.40;;
48040;SDS011;33815;48.386;11.738;2022-11-21T04:25:28;1.65;;;1.23;;
48040;SDS011;33815;48.386;11.738;2022-11-21T04:27:57;1.30;;;1.15;;
48040;SDS011;33815;48.386;11.738;2022-11-21T04:30:23;1.30;;;1.20;;
48040;SDS011;33815;48.386;11.738;2022-11-21T04:32:50;2.78;;;1.40;;
48040;SDS011;33815;48.386;11.738;2022-11-21T04:35:16;1.30;;;1.20;;
48040;SDS011;33815;48.386;11.738;2022-11-21T04:37:41;1.77;;;1.00;;
48040;SDS011;33815;48.386;11.738;2022-11-21T04:40:06;1.00;;;1.00;;
48040;SDS011;33815;48.386;11.738;2022-11-21T04:42:32;2.30;;;1.30;;
48040;SDS011;33815;48.386;11.738;2022-11-21T04:44:57;2.05;;;1.30;;
48040;SDS011;33815;48.386;11.738;2022-11-21T04:47:22;2.17;;;1.13;;
48040;SDS011;33815;48.386;11.738;2022-11-21T04:49:48;2.60;;;1.45;;
48040;SDS011;33815;48.386;11.738;2022-11-21T04:52:13;1.40;;;1.30;;
48040;SDS011;33815;48.386;11.738;2022-11-21T04:54:38;1.40;;;1.30;;
48040;SDS011;33815;48.386;11.738;2022-11-21T04:57:04;1.30;;;1.20;;
48040;SDS011;33815;48.386;11.738;2022-11-21T04:59:29;2.38;;;1.27;;
48040;SDS011;33815;48.386;11.738;2022-11-21T05:01:54;1.30;;;1.23;;
48040;SDS011;33815;48.386;11.738;2022-11-21T05:04:19;1.08;;;1.08;;
48040;SDS011;33815;48.386;11.738;2022-11-21T05:06:45;3.70;;;1.10;;
48040;SDS011;33815;48.386;11.738;2022-11-21T05:09:10;1.92;;;1.35;;
48040;SDS011;33815;48.386;11.738;2022-11-21T05:11:35;2.28;;;1.40;;
48040;SDS011;33815;48.386;11.738;2022-11-21T05:14:19;1.17;;;1.08;;
48040;SDS011;33815;48.386;11.738;2022-11-21T05:16:44;2.53;;;1.00;;
48040;SDS011;33815;48.386;11.738;2022-11-21T05:19:09;1.20;;;1.20;;
48040;SDS011;33815;48.386;11.738;2022-11-21T05:21:35;1.00;;;1.00;;
48040;SDS011;33815;48.386;11.738;2022-11-21T05:24:00;0.95;;;0.95;;
48040;SDS011;33815;48.386;11.738;2022-11-21T05:26:25;1.05;;;1.05;;
48040;SDS011;33815;48.386;11.738;2022-11-21T05:28:51;1.55;;;1.00;;
48040;SDS011;33815;48.386;11.738;2022-11-21T05:31:16;3.85;;;0.90;;
48040;SDS011;33815;48.386;11.738;2022-11-21T05:33:41;1.27;;;1.00;;
48040;SDS011;33815;48.386;11.738;2022-11-21T05:36:06;2.47;;;1.10;;
48040;SDS011;33815;48.386;11.738;2022-11-21T05:38:32;2.22;;;1.98;;
48040;SDS011;33815;48.386;11.738;2022-11-21T05:40:57;4.93;;;1.40;;
48040;SDS011;33815;48.386;11.738;2022-11-21T05:43:22;2.10;;;1.17;;
48040;SDS011;33815;48.386;11.738;2022-11-21T05:46:06;1.50;;;1.10;;
48040;SDS011;33815;48.386;11.738;2022-11-21T05:48:31;1.17;;;1.08;;
48040;SDS011;33815;48.386;11.738;2022-11-21T05:50:58;1.30;;;1.20;;
48040;SDS011;33815;48.386;11.738;2022-11-21T05:53:24;1.85;;;1.10;;
48040;SDS011;33815;48.386;11.738;2022-11-21T05:55:49;1.33;;;1.23;;
48040;SDS011;33815;48.386;11.738;2022-11-21T05:58:14;1.52;;;1.40;;
48040;SDS011;33815;48.386;11.738;2022-11-21T06:00:40;2.42;;;1.10;;
48040;SDS011;33815;48.386;11.738;2022-11-21T06:03:05;1.63;;;1.15;;
48040;SDS011;33815;48.386;11.738;2022-11-21T06:05:49;3.13;;;1.45;;
48040;SDS011;33815;48.386;11.738;2022-11-21T06:08:14;1.83;;;1.08;;
48040;SDS011;33815;48.386;11.738;2022-11-21T06:10:39;1.98;;;0.90;;
48040;SDS011;33815;48.386;11.738;2022-11-21T06:13:05;1.30;;;1.20;;
48040;SDS011;33815;48.386;11.738;2022-11-21T06:15:46;2.47;;;1.13;;
48040;SDS011;33815;48.386;11.738;2022-11-21T06:18:21;1.00;;;1.00;;
48040;SDS011;33815;48.386;11.738;2022-11-21T06:20:46;6.47;;;1.40;;
48040;SDS011;33815;48.386;11.738;2022-11-21T06:23:12;1.05;;;1.05;;
48040;SDS011;33815;48.386;11.738;2022-11-21T06:25:37;1.73;;;1.38;;
48040;SDS011;33815;48.386;11.738;2022-11-21T06:28:03;1.95;;;1.33;;
48040;SDS011;33815;48.386;11.738;2022-11-21T06:30:28;1.27;;;1.20;;
48040;SDS011;33815;48.386;11.738;2022-11-21T06:32:53;1.27;;;1.27;;
48040;SDS011;33815;48.386;11.738;2022-11-21T06:35:18;1.00;;;1.00;;
48040;SDS011;33815;48.386;11.738;2022-11-21T06:37:44;1.05;;;1.05;;
48040;SDS011;33815;48.386;11.738;2022-11-21T06:40:09;1.20;;;1.10;;
48040;SDS011;33815;48.386;11.738;2022-11-21T06:42:35;2.30;;;1.10;;
48040;SDS011;33815;48.386;11.738;2022-11-21T06:45:00;1.42;;;1.33;;
48040;SDS011;33815;48.386;11.738;2022-11-21T06:47:26;1.92;;;1.30;;
48040;SDS011;33815;48.386;11.738;2022-11-21T06:49:51;1.40;;;1.30;;
48040;SDS011;33815;48.386;11.738;2022-11-21T06:52:16;2.55;;;1.10;;
48040;SDS011;33815;48.386;11.738;2022-11-21T06:54:41;1.05;;;1.02;;
48040;SDS011;33815;48.386;11.738;2022-11-21T06:57:07;5.78;;;1.10;;
48040;SDS011;33815;48.386;11.738;2022-11-21T06:59:32;3.40;;;1.27;;
48040;SDS011;33815;48.386;11.738;2022-11-21T07:01:57;2.78;;;1.48;;
48040;SDS011;33815;48.386;11.738;2022-11-21T07:04:23;1.05;;;1.05;;
48040;SDS011;33815;48.386;11.738;2022-11-21T07:06:48;1.20;;;1.10;;
48040;SDS011;33815;48.386;11.738;2022-11-21T07:09:13;1.20;;;1.08;;
48040;SDS011;33815;48.386;11.738;2022-11-21T07:11:38;4.57;;;1.30;;
48040;SDS011;33815;48.386;11.738;2022-11-21T07:14:04;1.60;;;1.48;;
48040;SDS011;33815;48.386;11.738;2022-11-21T07:16:29;1.70;;;1.60;;
48040;SDS011;33815;48.386;11.738;2022-11-21T07:18:56;1.50;;;1.40;;
48040;SDS011;33815;48.386;11.738;2022-11-21T07:21:21;1.00;;;1.00;;
48040;SDS011;33815;48.386;11.738;2022-11-21T07:23:47;1.30;;;1.30;;
48040;SDS011;33815;48.386;11.738;2022-11-21T07:26:12;1.50;;;1.40;;
48040;SDS011;33815;48.386;11.738;2022-11-21T07:28:38;2.72;;;1.30;;
48040;SDS011;33815;48.386;11.738;2022-11-21T07:31:03;1.70;;;1.60;;
48040;SDS011;33815;48.386;11.738;2022-11-21T07:33:29;1.92;;;1.27;;
48040;SDS011;33815;48.386;11.738;2022-11-21T07:35:55;1.25;;;1.25;;
48040;SDS011;33815;48.386;11.738;2022-11-21T07:38:23;1.48;;;1.38;;
48040;SDS011;33815;48.386;11.738;2022-11-21T07:40:50;1.40;;;1.30;;
48040;SDS011;33815;48.386;11.738;2022-11-21T07:43:15;1.50;;;1.15;;
48040;SDS011;33815;48.386;11.738;2022-11-21T07:45:41;1.70;;;1.60;;
48040;SDS011;33815;48.386;11.738;2022-11-21T07:48:06;2.53;;;1.27;;
48040;SDS011;33815;48.386;11.738;2022-11-21T07:50:32;1.30;;;1.20;;
48040;SDS011;33815;48.386;11.738;2022-11-21T07:52:58;1.33;;;1.10;;
48040;SDS011;33815;48.386;11.738;2022-11-21T07:55:27;1.40;;;1.30;;
48040;SDS011;33815;48.386;11.738;2022-11-21T07:57:59;1.67;;;1.15;;
48040;SDS011;33815;48.386;11.738;2022-11-21T08:00:29;3.28;;;1.42;;
48040;SDS011;33815;48.386;11.738;2022-11-21T08:02:55;4.10;;;1.17;;
48040;SDS011;33815;48.386;11.738;2022-11-21T08:05:21;1.23;;;1.13;;
48040;SDS011;33815;48.386;11.738;2022-11-21T08:07:47;1.35;;;1.27;;
48040;SDS011;33815;48.386;11.738;2022-11-21T08:10:12;0.90;;;0.90;;
48040;SDS011;33815;48.386;11.738;2022-11-21T08:12:38;1.05;;;1.05;;
48040;SDS011;33815;48.386;11.738;2022-11-21T08:15:04;1.00;;;1.00;;
48040;SDS011;33815;48.386;11.738;2022-11-21T08:17:30;1.20;;;1.10;;
48040;SDS011;33815;48.386;11.738;2022-11-21T08:19:56;0.90;;;0.90;;
48040;SDS011;33815;48.386;11.738;2022-11-21T08:22:22;2.25;;;1.10;;
48040;SDS011;33815;48.386;11.738;2022-11-21T08:24:48;0.90;;;0.90;;
48040;SDS011;33815;48.386;11.738;2022-11-21T08:27:13;0.90;;;0.90;;
48040;SDS011;33815;48.386;11.738;2022-11-21T08:29:40;1.25;;;0.90;;
48040;SDS011;33815;48.386;11.738;2022-11-21T08:32:06;1.05;;;0.90;;
48040;SDS011;33815;48.386;11.738;2022-11-21T08:34:31;0.90;;;0.90;;
48040;SDS011;33815;48.386;11.738;2022-11-21T08:36:56;2.63;;;1.27;;
48040;SDS011;33815;48.386;11.738;2022-11-21T08:39:23;1.17;;;0.85;;
48040;SDS011;33815;48.386;11.738;2022-11-21T08:41:49;1.05;;;1.00;;
48040;SDS011;33815;48.386;11.738;2022-11-21T08:44:30;0.88;;;0.88;;
48040;SDS011;33815;48.386;11.738;2022-11-21T08:46:56;0.70;;;0.70;;
48040;SDS011;33815;48.386;11.738;2022-11-21T08:49:22;0.98;;;0.90;;
48040;SDS011;33815;48.386;11.738;2022-11-21T08:51:48;0.70;;;0.70;;
48040;SDS011;33815;48.386;11.738;2022-11-21T08:54:15;0.77;;;0.77;;
48040;SDS011;33815;48.386;11.738;2022-11-21T08:56:41;1.90;;;1.00;;
48040;SDS011;33815;48.386;11.738;2022-11-21T08:59:06;0.80;;;0.80;;
48040;SDS011;33815;48.386;11.738;2022-11-21T09:01:31;1.20;;;1.20;;
48040;SDS011;33815;48.386;11.738;2022-11-21T09:03:57;1.20;;;1.00;;
48040;SDS011;33815;48.386;11.738;2022-11-21T09:06:22;1.15;;;1.13;;
48040;SDS011;33815;48.386;11.738;2022-11-21T09:08:47;1.20;;;0.93;;
48040;SDS011;33815;48.386;11.738;2022-11-21T09:11:12;0.90;;;0.90;;
48040;SDS011;33815;48.386;11.738;2022-11-21T09:13:38;0.70;;;0.70;;
48040;SDS011;33815;48.386;11.738;2022-11-21T09:16:04;2.25;;;0.93;;
48040;SDS011;33815;48.386;11.738;2022-11-21T09:18:50;2.58;;;0.95;;
48040;SDS011;33815;48.386;11.738;2022-11-21T09:21:17;3.33;;;1.10;;
48040;SDS011;33815;48.386;11.738;2022-11-21T09:23:43;1.77;;;1.20;;
48040;SDS011;33815;48.386;11.738;2022-11-21T09:26:08;1.05;;;1.00;;
48040;SDS011;33815;48.386;11.738;2022-11-21T09:28:34;1.17;;;0.80;;
48040;SDS011;33815;48.386;11.738;2022-11-21T09:31:02;2.67;;;1.20;;
48040;SDS011;33815;48.386;11.738;2022-11-21T09:33:28;1.33;;;0.85;;
48040;SDS011;33815;48.386;11.738;2022-11-21T09:35:56;4.05;;;0.80;;
48040;SDS011;33815;48.386;11.738;2022-11-21T09:38:22;0.70;;;0.70;;
48040;SDS011;33815;48.386;11.738;2022-11-21T09:40:48;1.23;;;0.73;;
48040;SDS011;33815;48.386;11.738;2022-11-21T09:46:12;1.23;;;0.95;;
48040;SDS011;33815;48.386;11.738;2022-11-21T09:48:57;2.38;;;1.13;;
48040;SDS011;33815;48.386;11.738;2022-11-21T09:51:28;3.03;;;1.40;;
48040;SDS011;33815;48.386;11.738;2022-11-21T09:54:04;2.35;;;1.00;;
48040;SDS011;33815;48.386;11.738;2022-11-21T09:59:07;0.73;;;0.73;;
48040;SDS011;33815;48.386;11.738;2022-11-21T10:01:46;1.85;;;1.00;;
48040;SDS011;33815;48.386;11.738;2022-11-21T10:04:12;4.40;;;0.90;;
48040;SDS011;33815;48.386;11.738;2022-11-21T10:06:41;1.05;;;0.95;;
48040;SDS011;33815;48.386;11.738;2022-11-21T10:20:52;3.40;;;1.00;;
48040;SDS011;33815;48.386;11.738;2022-11-21T10:23:30;1.55;;;1.02;;
48040;SDS011;33815;48.386;11.738;2022-11-21T10:26:21;1.08;;;0.82;;
48040;SDS011;33815;48.386;11.738;2022-11-21T10:28:57;1.48;;;1.15;;
48040;SDS011;33815;48.386;11.738;2022-11-21T10:31:28;1.00;;;1.00;;
48040;SDS011;33815;48.386;11.738;2022-11-21T10:33:59;2.70;;;1.13;;
48040;SDS011;33815;48.386;11.738;2022-11-21T10:36:29;1.15;;;1.08;;
48040;SDS011;33815;48.386;11.738;2022-11-21T10:39:02;0.95;;;0.80;;
48040;SDS011;33815;48.386;11.738;2022-11-21T10:41:52;1.98;;;0.93;;
48040;SDS011;33815;48.386;11.738;2022-11-21T10:44:28;2.20;;;0.90;;
48040;SDS011;33815;48.386;11.738;2022-11-21T10:47:20;0.90;;;0.90;;
48040;SDS011;33815;48.386;11.738;2022-11-21T10:50:02;1.35;;;0.80;;
48040;SDS011;33815;48.386;11.738;2022-11-21T10:52:31;2.33;;;1.10;;
48040;SDS011;33815;48.386;11.738;2022-11-21T10:57:30;0.98;;;0.95;;
48040;SDS011;33815;48.386;11.738;2022-11-21T11:02:39;1.40;;;1.00;;
48040;SDS011;33815;48.386;11.738;2022-11-21T11:05:19;0.93;;;0.90;;
48040;SDS011;33815;48.386;11.738;2022-11-21T11:10:32;2.00;;;1.00;;
48040;SDS011;33815;48.386;11.738;2022-11-21T11:13:00;4.25;;;1.27;;
48040;SDS011;33815;48.386;11.738;2022-11-21T11:15:51;3.28;;;0.88;;
48040;SDS011;33815;48.386;11.738;2022-11-21T11:18:19;1.02;;;0.80;;
48040;SDS011;33815;48.386;11.738;2022-11-21T11:20:47;1.55;;;0.85;;
48040;SDS011;33815;48.386;11.738;2022-11-21T11:23:21;3.53;;;1.00;;
48040;SDS011;33815;48.386;11.738;2022-11-21T11:25:58;1.77;;;0.80;;
48040;SDS011;33815;48.386;11.738;2022-11-21T11:28:34;1.70;;;1.10;;
48040;SDS011;33815;48.386;11.738;2022-11-21T11:31:00;7.13;;;0.98;;
48040;SDS011;33815;48.386;11.738;2022-11-21T11:33:33;5.03;;;1.10;;
48040;SDS011;33815;48.386;11.738;2022-11-21T11:38:47;1.67;;;0.70;;
48040;SDS011;33815;48.386;11.738;2022-11-21T11:44:20;1.48;;;0.70;;
48040;SDS011;33815;48.386;11.738;2022-11-21T11:47:24;3.50;;;1.05;;
48040;SDS011;33815;48.386;11.738;2022-11-21T11:50:04;2.95;;;0.70;;
48040;SDS011;33815;48.386;11.738;2022-11-21T11:52:42;4.20;;;1.30;;
48040;SDS011;33815;48.386;11.738;2022-11-21T11:55:13;1.73;;;0.65;;
48040;SDS011;33815;48.386;11.738;2022-11-21T11:57:43;4.00;;;1.10;;
48040;SDS011;33815;48.386;11.738;2022-11-21T12:02:57;2.55;;;0.90;;
48040;SDS011;33815;48.386;11.738;2022-11-21T12:05:28;3.30;;;0.98;;
48040;SDS011;33815;48.386;11.738;2022-11-21T12:10:37;2.30;;;1.00;;
48040;SDS011;33815;48.386;11.738;2022-11-21T12:13:27;1.20;;;1.10;;
48040;SDS011;33815;48.386;11.738;2022-11-21T12:15:53;4.38;;;1.30;;
48040;SDS011;33815;48.386;11.738;2022-11-21T12:18:31;2.05;;;0.93;;
48040;SDS011;33815;48.386;11.738;2022-11-21T12:21:06;1.40;;;1.00;;
48040;SDS011;33815;48.386;11.738;2022-11-21T12:23:52;2.42;;;0.77;;
48040;SDS011;33815;48.386;11.738;2022-11-21T12:28:49;1.87;;;1.00;;
48040;SDS011;33815;48.386;11.738;2022-11-21T12:37:26;2.33;;;1.08;;
48040;SDS011;33815;48.386;11.738;2022-11-21T12:40:09;3.42;;;1.10;;
48040;SDS011;33815;48.386;11.738;2022-11-21T12:43:04;3.90;;;1.30;;
48040;SDS011;33815;48.386;11.738;2022-11-21T12:57:11;0.77;;;0.77;;
48040;SDS011;33815;48.386;11.738;2022-11-21T13:05:26;1.63;;;1.27;;
48040;SDS011;33815;48.386;11.738;2022-11-21T13:07:58;4.38;;;1.77;;
48040;SDS011;33815;48.386;11.738;2022-11-21T13:10:27;3.58;;;1.30;;
48040;SDS011;33815;48.386;11.738;2022-11-21T13:13:07;2.70;;;1.23;;
48040;SDS011;33815;48.386;11.738;2022-11-21T13:15:51;4.00;;;1.70;;
48040;SDS011;33815;48.386;11.738;2022-11-21T13:18:27;2.60;;;1.08;;
48040;SDS011;33815;48.386;11.738;2022-11-21T13:20:57;4.43;;;1.20;;
48040;SDS011;33815;48.386;11.738;2022-11-21T13:23:38;1.65;;;1.20;;
48040;SDS011;33815;48.386;11.738;2022-11-21T13:26:42;2.17;;;1.10;;
48040;SDS011;33815;48.386;11.738;2022-11-21T13:29:07;4.05;;;0.90;;
48040;SDS011;33815;48.386;11.738;2022-11-21T13:31:33;0.80;;;0.80;;
48040;SDS011;33815;48.386;11.738;2022-11-21T13:33:59;2.15;;;1.23;;
48040;SDS011;33815;48.386;11.738;2022-11-21T13:49:30;0.90;;;0.90;;
48040;SDS011;33815;48.386;11.738;2022-11-21T13:52:19;2.80;;;1.17;;
48040;SDS011;33815;48.386;11.738;2022-11-21T13:55:02;5.43;;;3.30;;
48040;SDS011;33815;48.386;11.738;2022-11-21T13:57:53;14.38;;;7.68;;
48040;SDS011;33815;48.386;11.738;2022-11-21T14:00:37;2.97;;;1.83;;
48040;SDS011;33815;48.386;11.738;2022-11-21T14:09:04;3.60;;;1.20;;
48040;SDS011;33815;48.386;11.738;2022-11-21T14:14:22;5.88;;;1.63;;
48040;SDS011;33815;48.386;11.738;2022-11-21T14:16:48;2.97;;;2.00;;
48040;SDS011;33815;48.386;11.738;2022-11-21T14:19:22;8.35;;;4.05;;
48040;SDS011;33815;48.386;11.738;2022-11-21T14:21:49;4.20;;;1.40;;
48040;SDS011;33815;48.386;11.738;2022-11-21T14:24:15;2.35;;;1.05;;
48040;SDS011;33815;48.386;11.738;2022-11-21T14:26:44;2.58;;;1.40;;
48040;SDS011;33815;48.386;11.738;2022-11-21T14:29:19;7.20;;;3.55;;
48040;SDS011;33815;48.386;11.738;2022-11-21T14:32:01;9.07;;;5.35;;
48040;SDS011;33815;48.386;11.738;2022-11-21T14:34:28;5.05;;;2.45;;
48040;SDS011;33815;48.386;11.738;2022-11-21T14:36:56;18.15;;;8.50;;
48040;SDS011;33815;48.386;11.738;2022-11-21T14:39:27;8.10;;;4.35;;
48040;SDS011;33815;48.386;11.738;2022-11-21T14:41:55;7.88;;;3.50;;
48040;SDS011;33815;48.386;11.738;2022-11-21T14:44:23;4.75;;;1.50;;
48040;SDS011;33815;48.386;11.738;2022-11-21T14:46:49;6.22;;;1.55;;
48040;SDS011;33815;48.386;11.738;2022-11-21T14:51:44;32.43;;;14.73;;
48040;SDS011;33815;48.386;11.738;2022-11-21T14:54:12;26.67;;;12.23;;
48040;SDS011;33815;48.386;11.738;2022-11-21T14:56:40;14.90;;;6.97;;
48040;SDS011;33815;48.386;11.738;2022-11-21T14:59:08;13.20;;;7.05;;
48040;SDS011;33815;48.386;11.738;2022-11-21T15:02:21;3.53;;;2.38;;
48040;SDS011;33815;48.386;11.738;2022-11-21T15:04:44;2.42;;;1.55;;
48040;SDS011;33815;48.386;11.738;2022-11-21T15:09:48;3.28;;;1.27;;
48040;SDS011;33815;48.386;11.738;2022-11-21T15:12:16;1.63;;;1.23;;
48040;SDS011;33815;48.386;11.738;2022-11-21T15:14:48;1.50;;;1.10;;
48040;SDS011;33815;48.386;11.738;2022-11-21T15:17:19;2.83;;;1.52;;
48040;SDS011;33815;48.386;11.738;2022-11-21T15:19:50;1.70;;;1.17;;
48040;SDS011;33815;48.386;11.738;2022-11-21T15:22:33;3.88;;;1.33;;
48040;SDS011;33815;48.386;11.738;2022-11-21T15:27:39;1.27;;;1.17;;
48040;SDS011;33815;48.386;11.738;2022-11-21T15:32:33;1.23;;;1.13;;
48040;SDS011;33815;48.386;11.738;2022-11-21T15:34:58;3.05;;;1.48;;
48040;SDS011;33815;48.386;11.738;2022-11-21T15:37:24;3.97;;;1.48;;
48040;SDS011;33815;48.386;11.738;2022-11-21T15:39:50;3.13;;;1.30;;
48040;SDS011;33815;48.386;11.738;2022-11-21T15:44:58;2.90;;;1.33;;
48040;SDS011;33815;48.386;11.738;2022-11-21T15:47:25;1.20;;;1.10;;
48040;SDS011;33815;48.386;11.738;2022-11-21T15:49:50;2.15;;;1.58;;
48040;SDS011;33815;48.386;11.738;2022-11-21T15:52:16;2.97;;;1.42;;
48040;SDS011;33815;48.386;11.738;2022-11-21T15:54:41;2.28;;;1.40;;
48040;SDS011;33815;48.386;11.738;2022-11-21T15:57:07;4.68;;;1.50;;
48040;SDS011;33815;48.386;11.738;2022-11-21T15:59:33;6.05;;;2.22;;
48040;SDS011;33815;48.386;11.738;2022-11-21T16:01:59;2.67;;;2.45;;
48040;SDS011;33815;48.386;11.738;2022-11-21T16:04:24;3.20;;;1.92;;
48040;SDS011;33815;48.386;11.738;2022-11-21T16:06:49;2.13;;;1.30;;
48040;SDS011;33815;48.386;11.738;2022-11-21T16:09:14;6.18;;;2.40;;
48040;SDS011;33815;48.386;11.738;2022-11-21T16:11:40;1.77;;;1.42;;
48040;SDS011;33815;48.386;11.738;2022-11-21T16:14:07;1.52;;;1.42;;
48040;SDS011;33815;48.386;11.738;2022-11-21T16:16:36;2.00;;;1.45;;
48040;SDS011;33815;48.386;11.738;2022-11-21T16:19:03;2.53;;;1.63;;
48040;SDS011;33815;48.386;11.738;2022-11-21T16:21:28;1.20;;;1.20;;
48040;SDS011;33815;48.386;11.738;2022-11-21T16:23:54;1.00;;;1.00;;
48040;SDS011;33815;48.386;11.738;2022-11-21T16:26:19;1.88;;;1.60;;